sensor_id;sensor_type;location;lat;lon;timestamp;pressure;altitude;pressure_sealevel;temperature;humidity
13581;BME280;6861;46.170;7.222;2022-08-30T00:00:49;96187.03;;;24.25;41.61
13581;BME280;6861;46.170;7.222;2022-08-30T00:03:33;96195.75;;;24.22;41.47
13581;BME280;6861;46.170;7.222;2022-08-30T00:06:03;96199.31;;;24.26;41.75
13581;BME280;6861;46.170;7.222;2022-08-30T00:08:31;96200.28;;;24.37;41.53
13581;BME280;6861;46.170;7.222;2022-08-30T00:10:59;96195.09;;;24.44;41.41
13581;BME280;6861;46.170;7.222;2022-08-30T00:13:26;96191.31;;;24.45;41.18
13581;BME280;6861;46.170;7.222;2022-08-30T00:15:53;96199.16;;;24.54;41.09
13581;BME280;6861;46.170;7.222;2022-08-30T00:18:20;96194.22;;;24.56;41.10
13581;BME280;6861;46.170;7.222;2022-08-30T00:20:48;96196.91;;;24.56;40.96
13581;BME280;6861;46.170;7.222;2022-08-30T00:23:17;96179.38;;;24.58;40.73
13581;BME280;6861;46.170;7.222;2022-08-30T00:25:45;96184.28;;;24.56;40.88
13581;BME280;6861;46.170;7.222;2022-08-30T00:28:12;96178.00;;;24.48;40.92
13581;BME280;6861;46.170;7.222;2022-08-30T00:30:40;96187.34;;;24.39;41.39
13581;BME280;6861;46.170;7.222;2022-08-30T00:33:07;96180.81;;;24.21;41.54
13581;BME280;6861;46.170;7.222;2022-08-30T00:35:35;96182.88;;;24.11;42.13
13581;BME280;6861;46.170;7.222;2022-08-30T00:38:03;96189.78;;;24.12;41.84
13581;BME280;6861;46.170;7.222;2022-08-30T00:40:32;96195.13;;;24.12;42.25
13581;BME280;6861;46.170;7.222;2022-08-30T00:42:59;96197.03;;;24.12;42.01
13581;BME280;6861;46.170;7.222;2022-08-30T00:45:29;96195.13;;;24.12;41.92
13581;BME280;6861;46.170;7.222;2022-08-30T00:47:58;96195.13;;;24.12;41.99
13581;BME280;6861;46.170;7.222;2022-08-30T00:50:28;96188.94;;;24.08;42.32
13581;BME280;6861;46.170;7.222;2022-08-30T00:52:59;96193.84;;;24.06;42.18
13581;BME280;6861;46.170;7.222;2022-08-30T00:55:28;96196.94;;;24.08;41.65
13581;BME280;6861;46.170;7.222;2022-08-30T00:57:59;96190.47;;;24.09;41.94
13581;BME280;6861;46.170;7.222;2022-08-30T01:00:28;96190.81;;;24.08;42.04
13581;BME280;6861;46.170;7.222;2022-08-30T01:02:56;96185.81;;;24.06;42.22
13581;BME280;6861;46.170;7.222;2022-08-30T01:05:23;96178.06;;;24.01;42.08
13581;BME280;6861;46.170;7.222;2022-08-30T01:07:50;96177.56;;;23.96;42.08
13581;BME280;6861;46.170;7.222;2022-08-30T01:10:17;96181.25;;;23.91;42.42
13581;BME280;6861;46.170;7.222;2022-08-30T01:12:45;96175.31;;;23.82;42.31
13581;BME280;6861;46.170;7.222;2022-08-30T01:15:15;96184.59;;;23.72;42.44
13581;BME280;6861;46.170;7.222;2022-08-30T01:17:43;96185.63;;;23.68;42.55
13581;BME280;6861;46.170;7.222;2022-08-30T01:20:14;96188.31;;;23.68;42.43
13581;BME280;6861;46.170;7.222;2022-08-30T01:22:55;96187.28;;;23.72;42.44
13581;BME280;6861;46.170;7.222;2022-08-30T01:25:26;96185.03;;;23.74;42.76
13581;BME280;6861;46.170;7.222;2022-08-30T01:27:58;96192.72;;;23.76;42.33
13581;BME280;6861;46.170;7.222;2022-08-30T01:30:26;96194.16;;;23.73;42.14
13581;BME280;6861;46.170;7.222;2022-08-30T01:32:56;96196.34;;;23.83;41.92
13581;BME280;6861;46.170;7.222;2022-08-30T01:35:26;96196.44;;;23.87;41.94
13581;BME280;6861;46.170;7.222;2022-08-30T01:37:54;96196.84;;;23.89;41.76
13581;BME280;6861;46.170;7.222;2022-08-30T01:40:22;96192.63;;;23.88;42.19
13581;BME280;6861;46.170;7.222;2022-08-30T01:42:49;96187.53;;;23.83;41.92
13581;BME280;6861;46.170;7.222;2022-08-30T01:45:16;96193.56;;;23.80;42.10
13581;BME280;6861;46.170;7.222;2022-08-30T01:47:43;96197.53;;;23.86;42.10
13581;BME280;6861;46.170;7.222;2022-08-30T01:50:10;96205.91;;;23.84;42.56
13581;BME280;6861;46.170;7.222;2022-08-30T01:52:37;96201.25;;;23.81;42.85
13581;BME280;6861;46.170;7.222;2022-08-30T01:55:07;96202.72;;;23.79;43.28
13581;BME280;6861;46.170;7.222;2022-08-30T01:57:35;96208.75;;;23.76;43.17
13581;BME280;6861;46.170;7.222;2022-08-30T02:00:05;96187.00;;;23.62;43.12
13581;BME280;6861;46.170;7.222;2022-08-30T02:02:33;96186.47;;;23.56;43.36
13581;BME280;6861;46.170;7.222;2022-08-30T02:05:00;96202.00;;;23.66;43.44
13581;BME280;6861;46.170;7.222;2022-08-30T02:07:28;96199.16;;;23.59;43.34
13581;BME280;6861;46.170;7.222;2022-08-30T02:09:55;96202.16;;;23.58;43.75
13581;BME280;6861;46.170;7.222;2022-08-30T02:12:23;96190.22;;;23.39;43.13
13581;BME280;6861;46.170;7.222;2022-08-30T02:14:50;96194.78;;;23.39;43.20
13581;BME280;6861;46.170;7.222;2022-08-30T02:17:18;96203.22;;;23.41;43.04
13581;BME280;6861;46.170;7.222;2022-08-30T02:19:45;96182.75;;;23.17;42.99
13581;BME280;6861;46.170;7.222;2022-08-30T02:22:12;96189.31;;;23.19;43.12
13581;BME280;6861;46.170;7.222;2022-08-30T02:24:40;96187.31;;;23.16;43.09
13581;BME280;6861;46.170;7.222;2022-08-30T02:27:07;96202.09;;;23.26;43.12
13581;BME280;6861;46.170;7.222;2022-08-30T02:29:36;96191.66;;;23.21;42.84
13581;BME280;6861;46.170;7.222;2022-08-30T02:32:04;96212.97;;;23.33;42.90
13581;BME280;6861;46.170;7.222;2022-08-30T02:34:31;96205.19;;;23.28;42.72
13581;BME280;6861;46.170;7.222;2022-08-30T02:36:58;96214.75;;;23.29;42.33
13581;BME280;6861;46.170;7.222;2022-08-30T02:39:25;96208.97;;;23.27;42.25
13581;BME280;6861;46.170;7.222;2022-08-30T02:41:52;96191.09;;;23.15;42.38
13581;BME280;6861;46.170;7.222;2022-08-30T02:44:19;96199.66;;;23.21;42.43
13581;BME280;6861;46.170;7.222;2022-08-30T02:46:48;96207.22;;;23.19;42.97
13581;BME280;6861;46.170;7.222;2022-08-30T02:49:15;96205.56;;;23.14;42.57
13581;BME280;6861;46.170;7.222;2022-08-30T02:51:42;96189.91;;;23.13;42.86
13581;BME280;6861;46.170;7.222;2022-08-30T02:54:10;96195.66;;;23.15;42.70
13581;BME280;6861;46.170;7.222;2022-08-30T02:56:40;96209.66;;;23.24;42.53
13581;BME280;6861;46.170;7.222;2022-08-30T02:59:07;96191.00;;;23.12;43.04
13581;BME280;6861;46.170;7.222;2022-08-30T03:01:35;96209.78;;;23.15;42.94
13581;BME280;6861;46.170;7.222;2022-08-30T03:04:05;96214.59;;;23.10;43.10
13581;BME280;6861;46.170;7.222;2022-08-30T03:06:32;96199.06;;;23.00;43.36
13581;BME280;6861;46.170;7.222;2022-08-30T03:08:59;96187.88;;;22.82;43.52
13581;BME280;6861;46.170;7.222;2022-08-30T03:11:27;96215.53;;;22.89;43.66
13581;BME280;6861;46.170;7.222;2022-08-30T03:13:54;96214.22;;;22.83;43.99
13581;BME280;6861;46.170;7.222;2022-08-30T03:16:22;96199.31;;;22.82;43.74
13581;BME280;6861;46.170;7.222;2022-08-30T03:18:49;96188.31;;;22.72;43.89
13581;BME280;6861;46.170;7.222;2022-08-30T03:21:17;96206.88;;;22.80;43.85
13581;BME280;6861;46.170;7.222;2022-08-30T03:23:45;96209.09;;;22.78;43.77
13581;BME280;6861;46.170;7.222;2022-08-30T03:26:12;96198.41;;;22.78;43.64
13581;BME280;6861;46.170;7.222;2022-08-30T03:28:39;96202.19;;;22.77;44.00
13581;BME280;6861;46.170;7.222;2022-08-30T03:31:07;96203.09;;;22.81;43.61
13581;BME280;6861;46.170;7.222;2022-08-30T03:33:35;96202.00;;;22.82;44.01
13581;BME280;6861;46.170;7.222;2022-08-30T03:36:02;96204.66;;;22.82;44.24
13581;BME280;6861;46.170;7.222;2022-08-30T03:38:31;96203.09;;;22.81;44.86
13581;BME280;6861;46.170;7.222;2022-08-30T03:40:58;96199.22;;;22.79;44.31
13581;BME280;6861;46.170;7.222;2022-08-30T03:43:25;96202.41;;;22.72;44.13
13581;BME280;6861;46.170;7.222;2022-08-30T03:45:52;96198.66;;;22.61;44.78
13581;BME280;6861;46.170;7.222;2022-08-30T03:48:19;96190.25;;;22.47;44.33
13581;BME280;6861;46.170;7.222;2022-08-30T03:50:46;96200.03;;;22.31;44.84
13581;BME280;6861;46.170;7.222;2022-08-30T03:53:13;96205.72;;;22.17;45.18
13581;BME280;6861;46.170;7.222;2022-08-30T03:55:41;96209.59;;;22.07;45.50
13581;BME280;6861;46.170;7.222;2022-08-30T03:58:09;96206.34;;;22.02;45.19
13581;BME280;6861;46.170;7.222;2022-08-30T04:00:36;96219.97;;;22.00;45.57
13581;BME280;6861;46.170;7.222;2022-08-30T04:03:03;96224.22;;;22.01;45.97
13581;BME280;6861;46.170;7.222;2022-08-30T04:05:30;96209.88;;;21.93;45.40
13581;BME280;6861;46.170;7.222;2022-08-30T04:07:57;96216.31;;;21.92;45.82
13581;BME280;6861;46.170;7.222;2022-08-30T04:10:24;96219.19;;;21.87;45.72
13581;BME280;6861;46.170;7.222;2022-08-30T04:12:53;96224.41;;;21.84;46.15
13581;BME280;6861;46.170;7.222;2022-08-30T04:15:21;96228.81;;;21.80;46.42
13581;BME280;6861;46.170;7.222;2022-08-30T04:17:48;96220.81;;;21.68;46.35
13581;BME280;6861;46.170;7.222;2022-08-30T04:20:15;96220.16;;;21.71;46.58
13581;BME280;6861;46.170;7.222;2022-08-30T04:22:42;96226.69;;;21.73;46.40
13581;BME280;6861;46.170;7.222;2022-08-30T04:25:10;96230.69;;;21.67;46.85
13581;BME280;6861;46.170;7.222;2022-08-30T04:27:37;96226.56;;;21.57;47.20
13581;BME280;6861;46.170;7.222;2022-08-30T04:30:06;96236.44;;;21.57;47.15
13581;BME280;6861;46.170;7.222;2022-08-30T04:32:34;96232.56;;;21.54;46.84
13581;BME280;6861;46.170;7.222;2022-08-30T04:35:01;96224.13;;;21.52;47.08
13581;BME280;6861;46.170;7.222;2022-08-30T04:37:28;96234.25;;;21.59;47.07
13581;BME280;6861;46.170;7.222;2022-08-30T04:39:55;96233.91;;;21.61;46.99
13581;BME280;6861;46.170;7.222;2022-08-30T04:42:25;96216.78;;;21.49;47.02
13581;BME280;6861;46.170;7.222;2022-08-30T04:44:52;96225.22;;;21.51;47.01
13581;BME280;6861;46.170;7.222;2022-08-30T04:47:21;96233.22;;;21.51;47.09
13581;BME280;6861;46.170;7.222;2022-08-30T04:49:48;96227.63;;;21.44;47.10
13581;BME280;6861;46.170;7.222;2022-08-30T04:52:15;96224.94;;;21.32;47.60
13581;BME280;6861;46.170;7.222;2022-08-30T04:54:42;96222.84;;;21.17;47.87
13581;BME280;6861;46.170;7.222;2022-08-30T04:57:09;96225.81;;;21.15;47.99
13581;BME280;6861;46.170;7.222;2022-08-30T04:59:37;96225.94;;;21.19;48.21
13581;BME280;6861;46.170;7.222;2022-08-30T05:02:04;96236.75;;;21.22;48.00
13581;BME280;6861;46.170;7.222;2022-08-30T05:04:33;96232.22;;;21.23;48.04
13581;BME280;6861;46.170;7.222;2022-08-30T05:07:00;96238.63;;;21.22;48.10
13581;BME280;6861;46.170;7.222;2022-08-30T05:09:27;96248.75;;;21.29;48.01
13581;BME280;6861;46.170;7.222;2022-08-30T05:11:54;96252.78;;;21.35;47.84
13581;BME280;6861;46.170;7.222;2022-08-30T05:14:21;96250.25;;;21.38;47.80
13581;BME280;6861;46.170;7.222;2022-08-30T05:16:48;96255.38;;;21.43;48.09
13581;BME280;6861;46.170;7.222;2022-08-30T05:19:15;96251.59;;;21.44;47.56
13581;BME280;6861;46.170;7.222;2022-08-30T05:21:44;96252.50;;;21.48;47.77
13581;BME280;6861;46.170;7.222;2022-08-30T05:24:10;96257.38;;;21.46;47.64
13581;BME280;6861;46.170;7.222;2022-08-30T05:26:37;96254.47;;;21.39;47.82
13581;BME280;6861;46.170;7.222;2022-08-30T05:29:05;96258.22;;;21.38;47.69
13581;BME280;6861;46.170;7.222;2022-08-30T05:31:33;96250.91;;;21.35;48.13
13581;BME280;6861;46.170;7.222;2022-08-30T05:34:02;96259.59;;;21.44;47.69
13581;BME280;6861;46.170;7.222;2022-08-30T05:36:33;96261.41;;;21.52;48.02
13581;BME280;6861;46.170;7.222;2022-08-30T05:39:02;96263.06;;;21.57;47.61
13581;BME280;6861;46.170;7.222;2022-08-30T05:41:29;96261.66;;;21.59;47.56
13581;BME280;6861;46.170;7.222;2022-08-30T05:43:58;96260.66;;;21.64;47.32
13581;BME280;6861;46.170;7.222;2022-08-30T05:46:26;96264.88;;;21.65;47.54
13581;BME280;6861;46.170;7.222;2022-08-30T05:48:58;96253.84;;;21.54;47.65
13581;BME280;6861;46.170;7.222;2022-08-30T05:51:27;96263.06;;;21.57;47.40
13581;BME280;6861;46.170;7.222;2022-08-30T05:53:56;96258.28;;;21.50;47.76
13581;BME280;6861;46.170;7.222;2022-08-30T05:56:27;96241.41;;;21.46;47.89
13581;BME280;6861;46.170;7.222;2022-08-30T05:58:56;96238.50;;;21.39;47.42
13581;BME280;6861;46.170;7.222;2022-08-30T06:01:26;96248.69;;;21.37;48.12
13581;BME280;6861;46.170;7.222;2022-08-30T06:03:54;96245.50;;;21.23;48.21
13581;BME280;6861;46.170;7.222;2022-08-30T06:06:22;96249.44;;;21.17;48.21
13581;BME280;6861;46.170;7.222;2022-08-30T06:08:51;96251.53;;;21.11;48.73
13581;BME280;6861;46.170;7.222;2022-08-30T06:11:19;96258.28;;;21.09;48.54
13581;BME280;6861;46.170;7.222;2022-08-30T06:13:49;96255.88;;;21.16;48.46
13581;BME280;6861;46.170;7.222;2022-08-30T06:16:19;96255.06;;;21.24;48.11
13581;BME280;6861;46.170;7.222;2022-08-30T06:18:47;96255.78;;;21.33;48.32
13581;BME280;6861;46.170;7.222;2022-08-30T06:21:15;96251.16;;;21.42;48.01
13581;BME280;6861;46.170;7.222;2022-08-30T06:23:43;96248.28;;;21.47;47.91
13581;BME280;6861;46.170;7.222;2022-08-30T06:26:10;96252.31;;;21.53;48.00
13581;BME280;6861;46.170;7.222;2022-08-30T06:28:37;96251.31;;;21.58;47.89
13581;BME280;6861;46.170;7.222;2022-08-30T06:31:06;96249.56;;;21.62;47.83
13581;BME280;6861;46.170;7.222;2022-08-30T06:33:34;96249.78;;;21.69;47.56
13581;BME280;6861;46.170;7.222;2022-08-30T06:36:02;96249.91;;;21.73;47.03
13581;BME280;6861;46.170;7.222;2022-08-30T06:38:29;96250.81;;;21.77;47.54
13581;BME280;6861;46.170;7.222;2022-08-30T06:40:56;96250.59;;;21.82;47.85
13581;BME280;6861;46.170;7.222;2022-08-30T06:43:23;96245.72;;;21.84;47.71
13581;BME280;6861;46.170;7.222;2022-08-30T06:45:50;96247.72;;;21.87;47.60
13581;BME280;6861;46.170;7.222;2022-08-30T06:48:18;96249.06;;;21.93;47.34
13581;BME280;6861;46.170;7.222;2022-08-30T06:50:45;96251.84;;;21.97;47.72
13581;BME280;6861;46.170;7.222;2022-08-30T06:53:18;96251.66;;;22.02;48.15
13581;BME280;6861;46.170;7.222;2022-08-30T06:55:45;96248.00;;;22.06;48.50
13581;BME280;6861;46.170;7.222;2022-08-30T06:58:12;96254.22;;;22.10;48.31
13581;BME280;6861;46.170;7.222;2022-08-30T07:00:38;96244.91;;;22.16;48.29
13581;BME280;6861;46.170;7.222;2022-08-30T07:03:06;96248.13;;;22.22;48.16
13581;BME280;6861;46.170;7.222;2022-08-30T07:05:34;96251.81;;;22.30;47.33
13581;BME280;6861;46.170;7.222;2022-08-30T07:08:01;96246.25;;;22.35;47.82
13581;BME280;6861;46.170;7.222;2022-08-30T07:10:28;96242.25;;;22.41;47.45
13581;BME280;6861;46.170;7.222;2022-08-30T07:12:55;96233.38;;;22.49;47.57
13581;BME280;6861;46.170;7.222;2022-08-30T07:15:22;96239.69;;;22.56;48.03
13581;BME280;6861;46.170;7.222;2022-08-30T07:17:49;96227.78;;;22.66;48.50
13581;BME280;6861;46.170;7.222;2022-08-30T07:20:36;96231.34;;;22.82;47.68
13581;BME280;6861;46.170;7.222;2022-08-30T07:23:03;96237.31;;;23.04;47.30
13581;BME280;6861;46.170;7.222;2022-08-30T07:25:30;96238.59;;;23.22;46.76
13581;BME280;6861;46.170;7.222;2022-08-30T07:27:57;96227.53;;;23.36;46.33
13581;BME280;6861;46.170;7.222;2022-08-30T07:30:24;96222.88;;;23.48;46.26
13581;BME280;6861;46.170;7.222;2022-08-30T07:32:51;96217.84;;;23.59;45.60
13581;BME280;6861;46.170;7.222;2022-08-30T07:35:18;96217.69;;;23.68;45.76
13581;BME280;6861;46.170;7.222;2022-08-30T07:37:46;96218.41;;;23.80;45.23
13581;BME280;6861;46.170;7.222;2022-08-30T07:40:14;96220.22;;;23.92;44.80
13581;BME280;6861;46.170;7.222;2022-08-30T07:42:41;96212.13;;;24.04;44.85
13581;BME280;6861;46.170;7.222;2022-08-30T07:45:10;96215.06;;;24.15;44.61
13581;BME280;6861;46.170;7.222;2022-08-30T07:47:37;96214.63;;;24.29;44.39
13581;BME280;6861;46.170;7.222;2022-08-30T07:50:05;96214.09;;;24.39;44.06
13581;BME280;6861;46.170;7.222;2022-08-30T07:52:33;96216.69;;;24.51;43.87
13581;BME280;6861;46.170;7.222;2022-08-30T07:55:02;96215.38;;;24.61;43.49
13581;BME280;6861;46.170;7.222;2022-08-30T07:57:29;96216.66;;;24.67;43.55
13581;BME280;6861;46.170;7.222;2022-08-30T07:59:59;96209.53;;;24.74;43.29
13581;BME280;6861;46.170;7.222;2022-08-30T08:02:26;96214.34;;;24.84;43.40
13581;BME280;6861;46.170;7.222;2022-08-30T08:04:53;96209.22;;;24.95;43.55
13581;BME280;6861;46.170;7.222;2022-08-30T08:07:20;96206.38;;;25.04;43.50
13581;BME280;6861;46.170;7.222;2022-08-30T08:09:47;96201.16;;;25.11;43.27
13581;BME280;6861;46.170;7.222;2022-08-30T08:12:15;96200.56;;;25.21;43.09
13581;BME280;6861;46.170;7.222;2022-08-30T08:14:42;96192.75;;;25.32;42.72
13581;BME280;6861;46.170;7.222;2022-08-30T08:17:09;96188.78;;;25.45;41.98
13581;BME280;6861;46.170;7.222;2022-08-30T08:19:36;96197.88;;;25.60;41.66
13581;BME280;6861;46.170;7.222;2022-08-30T08:22:03;96193.91;;;25.73;41.26
13581;BME280;6861;46.170;7.222;2022-08-30T08:24:30;96194.28;;;25.94;41.14
13581;BME280;6861;46.170;7.222;2022-08-30T08:26:57;96190.78;;;26.17;40.69
13581;BME280;6861;46.170;7.222;2022-08-30T08:29:25;96196.16;;;26.39;40.62
13581;BME280;6861;46.170;7.222;2022-08-30T08:31:52;96191.50;;;26.63;40.01
13581;BME280;6861;46.170;7.222;2022-08-30T08:34:21;96189.88;;;26.85;40.20
13581;BME280;6861;46.170;7.222;2022-08-30T08:36:49;96183.59;;;27.03;39.14
13581;BME280;6861;46.170;7.222;2022-08-30T08:39:16;96183.41;;;27.19;38.32
13581;BME280;6861;46.170;7.222;2022-08-30T08:41:51;96173.97;;;27.32;38.15
13581;BME280;6861;46.170;7.222;2022-08-30T08:44:35;96166.78;;;27.43;37.88
13581;BME280;6861;46.170;7.222;2022-08-30T08:47:10;96159.53;;;27.48;37.87
13581;BME280;6861;46.170;7.222;2022-08-30T08:49:40;96157.66;;;27.52;37.00
13581;BME280;6861;46.170;7.222;2022-08-30T08:52:19;96157.69;;;27.55;37.13
13581;BME280;6861;46.170;7.222;2022-08-30T08:55:08;96151.22;;;27.60;36.90
13581;BME280;6861;46.170;7.222;2022-08-30T08:57:35;96154.34;;;27.65;37.04
13581;BME280;6861;46.170;7.222;2022-08-30T09:00:06;96152.09;;;27.74;37.43
13581;BME280;6861;46.170;7.222;2022-08-30T09:02:39;96147.63;;;27.89;37.38
13581;BME280;6861;46.170;7.222;2022-08-30T09:05:08;96147.00;;;28.06;36.56
13581;BME280;6861;46.170;7.222;2022-08-30T09:07:41;96136.34;;;28.21;36.34
13581;BME280;6861;46.170;7.222;2022-08-30T09:10:09;96139.53;;;28.33;36.35
13581;BME280;6861;46.170;7.222;2022-08-30T09:12:36;96139.59;;;28.44;35.73
13581;BME280;6861;46.170;7.222;2022-08-30T09:15:09;96135.78;;;28.52;34.99
13581;BME280;6861;46.170;7.222;2022-08-30T09:17:55;96129.66;;;28.62;34.78
13581;BME280;6861;46.170;7.222;2022-08-30T09:20:26;96127.78;;;28.70;34.79
13581;BME280;6861;46.170;7.222;2022-08-30T09:22:53;96124.34;;;28.77;35.02
13581;BME280;6861;46.170;7.222;2022-08-30T09:25:24;96124.41;;;28.84;35.14
13581;BME280;6861;46.170;7.222;2022-08-30T09:27:52;96111.34;;;28.93;34.55
13581;BME280;6861;46.170;7.222;2022-08-30T09:30:23;96112.91;;;29.01;34.62
13581;BME280;6861;46.170;7.222;2022-08-30T09:32:52;96103.69;;;29.06;34.97
13581;BME280;6861;46.170;7.222;2022-08-30T09:35:22;96114.91;;;29.18;34.78
13581;BME280;6861;46.170;7.222;2022-08-30T09:37:54;96102.19;;;29.22;34.53
13581;BME280;6861;46.170;7.222;2022-08-30T09:40:28;96097.97;;;29.25;34.37
13581;BME280;6861;46.170;7.222;2022-08-30T09:43:00;96103.75;;;29.27;34.67
13581;BME280;6861;46.170;7.222;2022-08-30T09:45:37;96093.34;;;29.29;34.56
13581;BME280;6861;46.170;7.222;2022-08-30T09:48:31;96081.44;;;29.33;35.22
13581;BME280;6861;46.170;7.222;2022-08-30T09:54:11;96082.22;;;29.52;35.01
13581;BME280;6861;46.170;7.222;2022-08-30T09:56:50;96076.84;;;29.66;34.87
13581;BME280;6861;46.170;7.222;2022-08-30T09:59:29;96075.28;;;29.83;34.77
13581;BME280;6861;46.170;7.222;2022-08-30T10:02:03;96075.31;;;30.00;34.74
13581;BME280;6861;46.170;7.222;2022-08-30T10:04:39;96063.31;;;30.16;34.49
13581;BME280;6861;46.170;7.222;2022-08-30T10:07:12;96069.06;;;30.32;33.96
13581;BME280;6861;46.170;7.222;2022-08-30T10:09:45;96062.06;;;30.45;33.63
13581;BME280;6861;46.170;7.222;2022-08-30T10:12:19;96056.63;;;30.52;33.42
13581;BME280;6861;46.170;7.222;2022-08-30T10:14:59;96053.16;;;30.55;33.29
13581;BME280;6861;46.170;7.222;2022-08-30T10:17:40;96048.53;;;30.59;33.20
13581;BME280;6861;46.170;7.222;2022-08-30T10:20:18;96052.00;;;30.60;33.22
13581;BME280;6861;46.170;7.222;2022-08-30T10:22:50;96046.59;;;30.60;32.99
13581;BME280;6861;46.170;7.222;2022-08-30T10:25:22;96045.44;;;30.57;32.97
13581;BME280;6861;46.170;7.222;2022-08-30T10:27:54;96044.28;;;30.51;32.82
13581;BME280;6861;46.170;7.222;2022-08-30T10:30:23;96040.44;;;30.52;33.16
13581;BME280;6861;46.170;7.222;2022-08-30T10:32:57;96041.59;;;30.51;33.12
13581;BME280;6861;46.170;7.222;2022-08-30T10:35:28;96023.88;;;30.43;32.80
13581;BME280;6861;46.170;7.222;2022-08-30T10:38:00;96035.81;;;30.49;32.79
13581;BME280;6861;46.170;7.222;2022-08-30T10:40:31;96032.72;;;30.47;32.93
13581;BME280;6861;46.170;7.222;2022-08-30T10:43:22;96023.47;;;30.48;33.01
13581;BME280;6861;46.170;7.222;2022-08-30T10:45:52;96025.00;;;30.49;32.99
13581;BME280;6861;46.170;7.222;2022-08-30T10:48:26;96018.81;;;30.52;33.19
13581;BME280;6861;46.170;7.222;2022-08-30T10:50:57;96014.16;;;30.56;32.47
13581;BME280;6861;46.170;7.222;2022-08-30T10:53:32;96020.75;;;30.59;32.91
13581;BME280;6861;46.170;7.222;2022-08-30T10:56:06;96016.50;;;30.61;33.21
13581;BME280;6861;46.170;7.222;2022-08-30T10:58:36;96015.69;;;30.68;32.95
13581;BME280;6861;46.170;7.222;2022-08-30T11:01:13;96014.09;;;30.78;32.94
13581;BME280;6861;46.170;7.222;2022-08-30T11:04:19;96009.41;;;30.89;32.13
13581;BME280;6861;46.170;7.222;2022-08-30T11:06:56;96002.03;;;30.96;32.11
13581;BME280;6861;46.170;7.222;2022-08-30T11:09:36;95999.28;;;31.00;31.53
13581;BME280;6861;46.170;7.222;2022-08-30T11:12:23;95999.28;;;31.04;31.77
13581;BME280;6861;46.170;7.222;2022-08-30T11:14:52;95994.25;;;31.02;31.45
13581;BME280;6861;46.170;7.222;2022-08-30T11:17:26;95995.44;;;30.97;32.18
13581;BME280;6861;46.170;7.222;2022-08-30T11:19:58;95990.81;;;30.98;32.24
13581;BME280;6861;46.170;7.222;2022-08-30T11:22:29;95993.16;;;30.96;32.48
13581;BME280;6861;46.170;7.222;2022-08-30T11:25:03;95993.94;;;30.93;32.63
13581;BME280;6861;46.170;7.222;2022-08-30T11:27:46;95997.06;;;30.88;32.24
13581;BME280;6861;46.170;7.222;2022-08-30T11:30:48;95993.22;;;30.82;32.17
13581;BME280;6861;46.170;7.222;2022-08-30T11:33:41;95997.50;;;30.76;32.32
13581;BME280;6861;46.170;7.222;2022-08-30T11:36:11;95999.47;;;30.72;32.06
13581;BME280;6861;46.170;7.222;2022-08-30T11:39:01;96000.66;;;30.63;32.14
13581;BME280;6861;46.170;7.222;2022-08-30T11:41:33;95989.50;;;30.58;32.50
13581;BME280;6861;46.170;7.222;2022-08-30T11:44:28;95990.66;;;30.53;32.57
13581;BME280;6861;46.170;7.222;2022-08-30T11:46:56;95994.91;;;30.47;32.56
13581;BME280;6861;46.170;7.222;2022-08-30T11:49:39;95987.22;;;30.42;32.43
13581;BME280;6861;46.170;7.222;2022-08-30T11:52:21;95995.75;;;30.33;32.50
13581;BME280;6861;46.170;7.222;2022-08-30T11:55:21;95988.47;;;30.27;32.80
13581;BME280;6861;46.170;7.222;2022-08-30T11:57:57;95994.28;;;30.22;33.00
13581;BME280;6861;46.170;7.222;2022-08-30T12:00:29;95987.38;;;30.14;33.10
13581;BME280;6861;46.170;7.222;2022-08-30T12:02:58;95992.00;;;30.10;33.50
13581;BME280;6861;46.170;7.222;2022-08-30T12:05:51;95989.69;;;30.05;33.88
13581;BME280;6861;46.170;7.222;2022-08-30T12:08:51;95978.91;;;29.97;34.08
13581;BME280;6861;46.170;7.222;2022-08-30T12:11:54;95985.84;;;29.91;34.10
13581;BME280;6861;46.170;7.222;2022-08-30T12:14:46;95991.25;;;29.84;33.92
13581;BME280;6861;46.170;7.222;2022-08-30T12:17:21;95992.06;;;29.74;33.87
13581;BME280;6861;46.170;7.222;2022-08-30T12:20:15;95998.63;;;29.66;34.14
13581;BME280;6861;46.170;7.222;2022-08-30T12:22:43;95987.84;;;29.59;34.30
13581;BME280;6861;46.170;7.222;2022-08-30T12:25:23;95982.06;;;29.50;34.09
13581;BME280;6861;46.170;7.222;2022-08-30T12:27:54;95987.47;;;29.39;34.10
13581;BME280;6861;46.170;7.222;2022-08-30T12:30:33;95981.28;;;29.31;33.91
13581;BME280;6861;46.170;7.222;2022-08-30T12:33:04;95992.06;;;29.24;33.62
13581;BME280;6861;46.170;7.222;2022-08-30T12:35:32;95982.84;;;29.18;33.50
13581;BME280;6861;46.170;7.222;2022-08-30T12:38:02;95988.22;;;29.11;33.71
13581;BME280;6861;46.170;7.222;2022-08-30T12:40:32;95999.00;;;29.08;33.64
13581;BME280;6861;46.170;7.222;2022-08-30T12:43:01;95987.44;;;29.07;33.67
13581;BME280;6861;46.170;7.222;2022-08-30T12:45:31;95993.59;;;29.08;33.71
13581;BME280;6861;46.170;7.222;2022-08-30T12:48:04;95991.69;;;29.04;33.99
13581;BME280;6861;46.170;7.222;2022-08-30T12:50:34;95996.69;;;29.02;33.95
13581;BME280;6861;46.170;7.222;2022-08-30T12:53:03;95993.59;;;29.00;34.36
13581;BME280;6861;46.170;7.222;2022-08-30T12:55:35;95989.75;;;28.98;34.28
13581;BME280;6861;46.170;7.222;2022-08-30T12:58:05;95994.75;;;28.96;34.29
13581;BME280;6861;46.170;7.222;2022-08-30T13:00:35;95989.72;;;28.94;34.29
13581;BME280;6861;46.170;7.222;2022-08-30T13:03:05;95985.88;;;28.92;34.49
13581;BME280;6861;46.170;7.222;2022-08-30T13:05:50;95978.94;;;28.91;35.02
13581;BME280;6861;46.170;7.222;2022-08-30T13:08:19;95961.63;;;28.85;35.52
13581;BME280;6861;46.170;7.222;2022-08-30T13:10:59;95970.88;;;28.87;35.75
13581;BME280;6861;46.170;7.222;2022-08-30T13:13:37;95977.78;;;28.85;35.87
13581;BME280;6861;46.170;7.222;2022-08-30T13:16:23;95970.47;;;28.85;35.73
13581;BME280;6861;46.170;7.222;2022-08-30T13:18:51;95966.63;;;28.83;35.54
13581;BME280;6861;46.170;7.222;2022-08-30T13:21:27;95969.66;;;28.81;36.22
13581;BME280;6861;46.170;7.222;2022-08-30T13:23:57;95952.75;;;28.81;35.92
13581;BME280;6861;46.170;7.222;2022-08-30T13:26:26;95951.97;;;28.80;35.73
13581;BME280;6861;46.170;7.222;2022-08-30T13:28:54;95945.41;;;28.78;35.65
13581;BME280;6861;46.170;7.222;2022-08-30T13:31:23;95944.28;;;28.79;35.35